sensor_id;sensor_type;location;lat;lon;timestamp;pressure;altitude;pressure_sealevel;temperature;humidity
67373;BME280;54257;54.496;18.412;2022-07-22T00:02:17;99861.61;;;21.95;59.87
67373;BME280;54257;54.496;18.412;2022-07-22T00:04:47;99855.23;;;21.93;60.17
67373;BME280;54257;54.496;18.412;2022-07-22T00:07:17;99859.31;;;21.91;59.91
67373;BME280;54257;54.496;18.412;2022-07-22T00:09:44;99861.63;;;21.89;60.04
67373;BME280;54257;54.496;18.412;2022-07-22T00:12:11;99867.20;;;21.88;59.95
67373;BME280;54257;54.496;18.412;2022-07-22T00:14:38;99868.83;;;21.87;60.18
67373;BME280;54257;54.496;18.412;2022-07-22T00:17:05;99870.11;;;21.85;60.33
67373;BME280;54257;54.496;18.412;2022-07-22T00:19:32;99868.59;;;21.83;60.28
67373;BME280;54257;54.496;18.412;2022-07-22T00:21:59;99872.98;;;21.82;60.67
67373;BME280;54257;54.496;18.412;2022-07-22T00:24:26;99870.83;;;21.78;60.49
67373;BME280;54257;54.496;18.412;2022-07-22T00:26:53;99867.40;;;21.77;60.74
67373;BME280;54257;54.496;18.412;2022-07-22T00:29:19;99868.33;;;21.75;60.87
67373;BME280;54257;54.496;18.412;2022-07-22T00:31:47;99874.48;;;21.72;60.61
67373;BME280;54257;54.496;18.412;2022-07-22T00:34:13;99876.61;;;21.71;61.06
67373;BME280;54257;54.496;18.412;2022-07-22T00:36:40;99879.32;;;21.68;61.23
67373;BME280;54257;54.496;18.412;2022-07-22T00:39:07;99868.98;;;21.65;61.50
67373;BME280;54257;54.496;18.412;2022-07-22T00:41:34;99868.17;;;21.63;61.53
67373;BME280;54257;54.496;18.412;2022-07-22T00:44:04;99865.19;;;21.64;61.62
67373;BME280;54257;54.496;18.412;2022-07-22T00:46:32;99866.60;;;21.63;61.80
67373;BME280;54257;54.496;18.412;2022-07-22T00:49:03;99866.76;;;21.64;61.56
67373;BME280;54257;54.496;18.412;2022-07-22T00:51:30;99860.86;;;21.63;61.76
67373;BME280;54257;54.496;18.412;2022-07-22T00:53:59;99858.55;;;21.64;61.84
67373;BME280;54257;54.496;18.412;2022-07-22T00:56:30;99858.66;;;21.62;61.89
67373;BME280;54257;54.496;18.412;2022-07-22T00:59:00;99855.08;;;21.59;61.78
67373;BME280;54257;54.496;18.412;2022-07-22T01:01:27;99850.63;;;21.56;61.96
67373;BME280;54257;54.496;18.412;2022-07-22T01:03:54;99850.70;;;21.54;61.85
67373;BME280;54257;54.496;18.412;2022-07-22T01:06:21;99845.37;;;21.53;61.92
67373;BME280;54257;54.496;18.412;2022-07-22T01:08:48;99844.02;;;21.51;61.83
67373;BME280;54257;54.496;18.412;2022-07-22T01:11:18;99848.21;;;21.50;61.69
67373;BME280;54257;54.496;18.412;2022-07-22T01:13:46;99846.33;;;21.48;61.86
67373;BME280;54257;54.496;18.412;2022-07-22T01:16:15;99842.59;;;21.46;62.02
67373;BME280;54257;54.496;18.412;2022-07-22T01:18:42;99833.50;;;21.43;61.86
67373;BME280;54257;54.496;18.412;2022-07-22T01:21:10;99831.14;;;21.40;62.08
67373;BME280;54257;54.496;18.412;2022-07-22T01:23:39;99830.77;;;21.35;61.86
67373;BME280;54257;54.496;18.412;2022-07-22T01:26:06;99832.02;;;21.34;61.76
67373;BME280;54257;54.496;18.412;2022-07-22T01:28:33;99831.02;;;21.32;62.12
67373;BME280;54257;54.496;18.412;2022-07-22T01:31:00;99831.31;;;21.29;62.32
67373;BME280;54257;54.496;18.412;2022-07-22T01:33:27;99831.02;;;21.24;62.28
67373;BME280;54257;54.496;18.412;2022-07-22T01:35:54;99828.69;;;21.22;62.19
67373;BME280;54257;54.496;18.412;2022-07-22T01:38:22;99826.88;;;21.19;62.38
67373;BME280;54257;54.496;18.412;2022-07-22T01:40:49;99829.42;;;21.09;62.34
67373;BME280;54257;54.496;18.412;2022-07-22T01:43:17;99828.06;;;21.01;62.48
67373;BME280;54257;54.496;18.412;2022-07-22T01:45:47;99827.38;;;20.95;62.29
67373;BME280;54257;54.496;18.412;2022-07-22T01:48:14;99821.71;;;20.92;62.61
67373;BME280;54257;54.496;18.412;2022-07-22T01:50:42;99824.20;;;20.84;62.83
67373;BME280;54257;54.496;18.412;2022-07-22T01:53:09;99825.18;;;20.80;62.93
67373;BME280;54257;54.496;18.412;2022-07-22T01:55:37;99827.20;;;20.76;62.90
67373;BME280;54257;54.496;18.412;2022-07-22T01:58:04;99823.63;;;20.74;62.89
67373;BME280;54257;54.496;18.412;2022-07-22T02:00:34;99814.34;;;20.70;63.25
67373;BME280;54257;54.496;18.412;2022-07-22T02:03:01;99816.27;;;20.63;63.21
67373;BME280;54257;54.496;18.412;2022-07-22T02:05:29;99812.98;;;20.56;63.63
67373;BME280;54257;54.496;18.412;2022-07-22T02:08:01;99812.43;;;20.51;63.73
67373;BME280;54257;54.496;18.412;2022-07-22T02:10:28;99811.02;;;20.46;63.72
67373;BME280;54257;54.496;18.412;2022-07-22T02:12:56;99813.66;;;20.43;63.63
67373;BME280;54257;54.496;18.412;2022-07-22T02:15:24;99809.86;;;20.42;63.73
67373;BME280;54257;54.496;18.412;2022-07-22T02:17:51;99809.73;;;20.41;63.62
67373;BME280;54257;54.496;18.412;2022-07-22T02:20:18;99810.47;;;20.39;63.70
67373;BME280;54257;54.496;18.412;2022-07-22T02:22:45;99816.46;;;20.35;64.02
67373;BME280;54257;54.496;18.412;2022-07-22T02:25:11;99825.26;;;20.31;63.83
67373;BME280;54257;54.496;18.412;2022-07-22T02:27:40;99834.39;;;20.26;63.77
67373;BME280;54257;54.496;18.412;2022-07-22T02:30:10;99835.77;;;20.20;64.01
67373;BME280;54257;54.496;18.412;2022-07-22T02:32:38;99840.69;;;20.17;64.24
67373;BME280;54257;54.496;18.412;2022-07-22T02:35:07;99845.46;;;20.13;64.10
67373;BME280;54257;54.496;18.412;2022-07-22T02:37:34;99851.84;;;20.07;64.16
67373;BME280;54257;54.496;18.412;2022-07-22T02:40:01;99855.46;;;20.01;64.35
67373;BME280;54257;54.496;18.412;2022-07-22T02:42:28;99857.35;;;19.95;64.40
67373;BME280;54257;54.496;18.412;2022-07-22T02:44:55;99862.42;;;19.85;64.59
67373;BME280;54257;54.496;18.412;2022-07-22T02:47:22;99863.88;;;19.75;64.69
67373;BME280;54257;54.496;18.412;2022-07-22T02:49:49;99859.10;;;19.71;65.13
67373;BME280;54257;54.496;18.412;2022-07-22T02:52:16;99855.65;;;19.70;65.19
67373;BME280;54257;54.496;18.412;2022-07-22T02:54:43;99849.60;;;19.70;65.30
67373;BME280;54257;54.496;18.412;2022-07-22T02:57:10;99851.33;;;19.70;65.58
67373;BME280;54257;54.496;18.412;2022-07-22T02:59:37;99854.48;;;19.68;65.68
67373;BME280;54257;54.496;18.412;2022-07-22T03:02:04;99856.91;;;19.68;65.87
67373;BME280;54257;54.496;18.412;2022-07-22T03:04:31;99860.71;;;19.69;65.86
67373;BME280;54257;54.496;18.412;2022-07-22T03:06:58;99862.34;;;19.66;66.25
67373;BME280;54257;54.496;18.412;2022-07-22T03:09:25;99862.95;;;19.62;66.44
67373;BME280;54257;54.496;18.412;2022-07-22T03:11:52;99863.40;;;19.57;66.77
67373;BME280;54257;54.496;18.412;2022-07-22T03:14:18;99863.42;;;19.53;66.80
67373;BME280;54257;54.496;18.412;2022-07-22T03:16:46;99864.27;;;19.56;66.95
67373;BME280;54257;54.496;18.412;2022-07-22T03:19:12;99855.02;;;19.59;66.93
67373;BME280;54257;54.496;18.412;2022-07-22T03:21:42;99858.71;;;19.66;67.07
67373;BME280;54257;54.496;18.412;2022-07-22T03:24:09;99863.10;;;19.71;67.11
67373;BME280;54257;54.496;18.412;2022-07-22T03:26:36;99872.37;;;19.75;67.02
67373;BME280;54257;54.496;18.412;2022-07-22T03:29:02;99877.27;;;19.80;67.19
67373;BME280;54257;54.496;18.412;2022-07-22T03:31:29;99885.11;;;19.86;67.07
67373;BME280;54257;54.496;18.412;2022-07-22T03:33:56;99887.82;;;19.90;67.74
67373;BME280;54257;54.496;18.412;2022-07-22T03:36:23;99896.55;;;19.94;67.68
67373;BME280;54257;54.496;18.412;2022-07-22T03:38:50;99902.00;;;19.99;68.13
67373;BME280;54257;54.496;18.412;2022-07-22T03:41:17;99907.08;;;20.04;68.45
67373;BME280;54257;54.496;18.412;2022-07-22T03:43:44;99916.64;;;20.10;68.58
67373;BME280;54257;54.496;18.412;2022-07-22T03:46:11;99915.45;;;20.17;68.46
67373;BME280;54257;54.496;18.412;2022-07-22T03:48:38;99920.09;;;20.18;68.75
67373;BME280;54257;54.496;18.412;2022-07-22T03:51:05;99928.23;;;20.19;68.59
67373;BME280;54257;54.496;18.412;2022-07-22T03:53:31;99932.77;;;20.18;68.93
67373;BME280;54257;54.496;18.412;2022-07-22T03:56:02;99936.55;;;20.19;69.30
67373;BME280;54257;54.496;18.412;2022-07-22T03:58:29;99928.48;;;20.23;69.25
67373;BME280;54257;54.496;18.412;2022-07-22T04:00:56;99922.13;;;20.28;69.05
67373;BME280;54257;54.496;18.412;2022-07-22T04:03:23;99912.93;;;20.35;68.95
67373;BME280;54257;54.496;18.412;2022-07-22T04:05:51;99911.90;;;20.41;68.96
67373;BME280;54257;54.496;18.412;2022-07-22T04:08:18;99904.39;;;20.45;69.00
67373;BME280;54257;54.496;18.412;2022-07-22T04:10:45;99898.36;;;20.50;68.81
67373;BME280;54257;54.496;18.412;2022-07-22T04:13:12;99891.45;;;20.56;68.70
67373;BME280;54257;54.496;18.412;2022-07-22T04:15:39;99884.36;;;20.62;68.48
67373;BME280;54257;54.496;18.412;2022-07-22T04:18:05;99875.52;;;20.68;68.57
67373;BME280;54257;54.496;18.412;2022-07-22T04:20:33;99872.56;;;20.74;68.19
67373;BME280;54257;54.496;18.412;2022-07-22T04:23:00;99865.60;;;20.82;68.25
67373;BME280;54257;54.496;18.412;2022-07-22T04:25:27;99863.33;;;20.89;68.24
67373;BME280;54257;54.496;18.412;2022-07-22T04:27:57;99855.37;;;20.94;68.08
67373;BME280;54257;54.496;18.412;2022-07-22T04:30:24;99850.00;;;20.99;68.58
67373;BME280;54257;54.496;18.412;2022-07-22T04:32:51;99846.52;;;21.06;68.61
67373;BME280;54257;54.496;18.412;2022-07-22T04:35:18;99845.21;;;21.15;68.62
67373;BME280;54257;54.496;18.412;2022-07-22T04:37:45;99845.02;;;21.21;68.56
67373;BME280;54257;54.496;18.412;2022-07-22T04:40:12;99845.02;;;21.29;68.46
67373;BME280;54257;54.496;18.412;2022-07-22T04:42:39;99845.92;;;21.34;68.58
67373;BME280;54257;54.496;18.412;2022-07-22T04:45:06;99845.04;;;21.35;68.51
67373;BME280;54257;54.496;18.412;2022-07-22T04:47:36;99843.11;;;21.41;68.29
67373;BME280;54257;54.496;18.412;2022-07-22T04:50:03;99834.02;;;21.48;68.39
67373;BME280;54257;54.496;18.412;2022-07-22T04:52:32;99831.58;;;21.54;68.21
67373;BME280;54257;54.496;18.412;2022-07-22T04:55:02;99832.50;;;21.59;68.10
67373;BME280;54257;54.496;18.412;2022-07-22T04:57:31;99835.81;;;21.63;67.76
67373;BME280;54257;54.496;18.412;2022-07-22T04:59:59;99833.80;;;21.67;67.64
67373;BME280;54257;54.496;18.412;2022-07-22T05:02:25;99837.84;;;21.71;67.68
67373;BME280;54257;54.496;18.412;2022-07-22T05:04:52;99839.52;;;21.78;67.45
67373;BME280;54257;54.496;18.412;2022-07-22T05:07:19;99852.55;;;21.90;67.61
67373;BME280;54257;54.496;18.412;2022-07-22T05:09:46;99857.06;;;22.01;67.58
67373;BME280;54257;54.496;18.412;2022-07-22T05:12:13;99866.48;;;22.12;67.59
67373;BME280;54257;54.496;18.412;2022-07-22T05:14:40;99877.59;;;22.19;67.28
67373;BME280;54257;54.496;18.412;2022-07-22T05:17:10;99879.36;;;22.28;67.00
67373;BME280;54257;54.496;18.412;2022-07-22T05:19:38;99861.16;;;22.36;66.76
67373;BME280;54257;54.496;18.412;2022-07-22T05:22:07;99862.99;;;22.44;66.57
67373;BME280;54257;54.496;18.412;2022-07-22T05:24:36;99884.59;;;22.50;66.87
67373;BME280;54257;54.496;18.412;2022-07-22T05:27:03;99892.55;;;22.46;67.64
67373;BME280;54257;54.496;18.412;2022-07-22T05:29:30;99878.58;;;22.42;67.68
67373;BME280;54257;54.496;18.412;2022-07-22T05:31:57;99877.42;;;22.39;67.74
67373;BME280;54257;54.496;18.412;2022-07-22T05:34:24;99887.61;;;22.37;68.24
67373;BME280;54257;54.496;18.412;2022-07-22T05:36:51;99872.14;;;22.31;68.29
67373;BME280;54257;54.496;18.412;2022-07-22T05:39:18;99868.45;;;22.27;68.42
67373;BME280;54257;54.496;18.412;2022-07-22T05:41:45;99876.48;;;22.26;68.67
67373;BME280;54257;54.496;18.412;2022-07-22T05:44:12;99886.36;;;22.22;68.99
67373;BME280;54257;54.496;18.412;2022-07-22T05:46:39;99897.13;;;22.12;69.48
67373;BME280;54257;54.496;18.412;2022-07-22T05:49:06;99913.34;;;22.04;69.59
67373;BME280;54257;54.496;18.412;2022-07-22T05:51:33;99933.06;;;21.97;70.29
67373;BME280;54257;54.496;18.412;2022-07-22T05:54:01;99931.40;;;21.82;70.78
67373;BME280;54257;54.496;18.412;2022-07-22T05:56:28;99903.79;;;21.69;70.62
67373;BME280;54257;54.496;18.412;2022-07-22T05:58:57;99871.80;;;21.63;70.67
67373;BME280;54257;54.496;18.412;2022-07-22T06:01:24;99860.00;;;21.63;71.07
67373;BME280;54257;54.496;18.412;2022-07-22T06:03:51;99860.96;;;21.65;71.11
67373;BME280;54257;54.496;18.412;2022-07-22T06:06:18;99865.08;;;21.68;71.43
67373;BME280;54257;54.496;18.412;2022-07-22T06:08:45;99869.02;;;21.70;71.36
67373;BME280;54257;54.496;18.412;2022-07-22T06:11:15;99855.74;;;21.71;71.54
67373;BME280;54257;54.496;18.412;2022-07-22T06:13:42;99838.83;;;21.67;72.15
67373;BME280;54257;54.496;18.412;2022-07-22T06:16:09;99845.75;;;21.57;72.48
67373;BME280;54257;54.496;18.412;2022-07-22T06:18:36;99859.63;;;21.52;72.35
67373;BME280;54257;54.496;18.412;2022-07-22T06:21:04;99862.05;;;21.53;72.52
67373;BME280;54257;54.496;18.412;2022-07-22T06:23:31;99871.90;;;21.54;72.60
67373;BME280;54257;54.496;18.412;2022-07-22T06:25:58;99875.95;;;21.53;72.86
67373;BME280;54257;54.496;18.412;2022-07-22T06:28:25;99873.77;;;21.51;73.01
67373;BME280;54257;54.496;18.412;2022-07-22T06:30:52;99873.05;;;21.51;73.17
67373;BME280;54257;54.496;18.412;2022-07-22T06:33:19;99876.13;;;21.53;73.38
67373;BME280;54257;54.496;18.412;2022-07-22T06:35:46;99872.46;;;21.53;73.98
67373;BME280;54257;54.496;18.412;2022-07-22T06:38:13;99872.34;;;21.51;73.97
67373;BME280;54257;54.496;18.412;2022-07-22T06:40:40;99869.89;;;21.52;74.14
67373;BME280;54257;54.496;18.412;2022-07-22T06:43:07;99877.83;;;21.54;74.59
67373;BME280;54257;54.496;18.412;2022-07-22T06:45:35;99880.85;;;21.52;75.12
67373;BME280;54257;54.496;18.412;2022-07-22T06:48:02;99882.90;;;21.47;75.03
67373;BME280;54257;54.496;18.412;2022-07-22T06:50:29;99880.67;;;21.46;75.06
67373;BME280;54257;54.496;18.412;2022-07-22T06:52:56;99884.60;;;21.48;75.08
67373;BME280;54257;54.496;18.412;2022-07-22T06:55:26;99883.96;;;21.52;75.16
67373;BME280;54257;54.496;18.412;2022-07-22T06:57:57;99891.35;;;21.55;75.40
67373;BME280;54257;54.496;18.412;2022-07-22T07:00:41;99877.27;;;21.55;75.64
67373;BME280;54257;54.496;18.412;2022-07-22T07:03:09;99881.02;;;21.57;75.63
67373;BME280;54257;54.496;18.412;2022-07-22T07:05:36;99891.08;;;21.59;76.14
67373;BME280;54257;54.496;18.412;2022-07-22T07:08:03;99897.97;;;21.61;76.03
67373;BME280;54257;54.496;18.412;2022-07-22T07:10:30;99905.42;;;21.62;76.14
67373;BME280;54257;54.496;18.412;2022-07-22T07:12:58;99912.36;;;21.62;76.67
67373;BME280;54257;54.496;18.412;2022-07-22T07:15:28;99919.55;;;21.60;76.55
67373;BME280;54257;54.496;18.412;2022-07-22T07:17:56;99919.60;;;21.52;77.40
67373;BME280;54257;54.496;18.412;2022-07-22T07:20:26;99915.55;;;21.48;76.59
67373;BME280;54257;54.496;18.412;2022-07-22T07:22:53;99908.06;;;21.48;76.61
67373;BME280;54257;54.496;18.412;2022-07-22T07:25:21;99903.54;;;21.49;76.27
67373;BME280;54257;54.496;18.412;2022-07-22T07:27:51;99909.88;;;21.52;76.19
67373;BME280;54257;54.496;18.412;2022-07-22T07:30:18;99919.83;;;21.50;76.39
67373;BME280;54257;54.496;18.412;2022-07-22T07:32:45;99918.19;;;21.47;76.18
67373;BME280;54257;54.496;18.412;2022-07-22T07:35:12;99918.77;;;21.45;76.08
67373;BME280;54257;54.496;18.412;2022-07-22T07:37:39;99919.44;;;21.46;76.06
67373;BME280;54257;54.496;18.412;2022-07-22T07:40:06;99924.08;;;21.47;76.29
67373;BME280;54257;54.496;18.412;2022-07-22T07:42:34;99931.85;;;21.49;76.12
67373;BME280;54257;54.496;18.412;2022-07-22T07:45:01;99937.63;;;21.48;76.26
67373;BME280;54257;54.496;18.412;2022-07-22T07:47:28;99940.40;;;21.48;76.85
67373;BME280;54257;54.496;18.412;2022-07-22T07:49:55;99946.73;;;21.46;77.14
67373;BME280;54257;54.496;18.412;2022-07-22T07:52:23;99953.23;;;21.38;77.17
67373;BME280;54257;54.496;18.412;2022-07-22T07:54:50;99950.34;;;21.28;77.77
67373;BME280;54257;54.496;18.412;2022-07-22T07:57:17;99948.31;;;21.19;77.50
67373;BME280;54257;54.496;18.412;2022-07-22T07:59:44;99947.22;;;21.21;78.44
67373;BME280;54257;54.496;18.412;2022-07-22T08:02:12;99946.17;;;21.21;78.62
67373;BME280;54257;54.496;18.412;2022-07-22T08:04:39;99942.88;;;21.28;78.77
67373;BME280;54257;54.496;18.412;2022-07-22T08:07:06;99934.99;;;21.37;78.85
67373;BME280;54257;54.496;18.412;2022-07-22T08:09:34;99931.86;;;21.43;78.70
67373;BME280;54257;54.496;18.412;2022-07-22T08:12:05;99928.18;;;21.50;78.57
67373;BME280;54257;54.496;18.412;2022-07-22T08:14:35;99925.55;;;21.56;78.13
67373;BME280;54257;54.496;18.412;2022-07-22T08:17:02;99929.45;;;21.61;77.63
67373;BME280;54257;54.496;18.412;2022-07-22T08:19:29;99927.62;;;21.64;77.33
67373;BME280;54257;54.496;18.412;2022-07-22T08:21:56;99922.14;;;21.67;77.73
67373;BME280;54257;54.496;18.412;2022-07-22T08:24:23;99923.91;;;21.71;77.85
67373;BME280;54257;54.496;18.412;2022-07-22T08:26:50;99922.67;;;21.72;77.62
67373;BME280;54257;54.496;18.412;2022-07-22T08:29:17;99919.46;;;21.74;77.45
67373;BME280;54257;54.496;18.412;2022-07-22T08:31:44;99914.24;;;21.80;77.34
67373;BME280;54257;54.496;18.412;2022-07-22T08:34:11;99908.01;;;21.91;77.59
67373;BME280;54257;54.496;18.412;2022-07-22T08:36:38;99905.27;;;22.07;77.90
67373;BME280;54257;54.496;18.412;2022-07-22T08:39:05;99892.61;;;22.22;77.53
67373;BME280;54257;54.496;18.412;2022-07-22T08:41:35;99883.04;;;22.33;77.36
67373;BME280;54257;54.496;18.412;2022-07-22T08:44:04;99876.53;;;22.46;76.78
67373;BME280;54257;54.496;18.412;2022-07-22T08:46:31;99867.77;;;22.57;76.77
67373;BME280;54257;54.496;18.412;2022-07-22T08:48:59;99861.13;;;22.68;76.23
67373;BME280;54257;54.496;18.412;2022-07-22T08:51:28;99853.68;;;22.82;76.15
67373;BME280;54257;54.496;18.412;2022-07-22T08:53:55;99841.85;;;23.02;76.00
67373;BME280;54257;54.496;18.412;2022-07-22T08:56:23;99836.90;;;23.27;76.43
67373;BME280;54257;54.496;18.412;2022-07-22T08:58:49;99833.70;;;23.60;76.22
67373;BME280;54257;54.496;18.412;2022-07-22T09:01:17;99833.04;;;24.12;76.10
67373;BME280;54257;54.496;18.412;2022-07-22T09:03:53;99835.23;;;24.56;74.33
67373;BME280;54257;54.496;18.412;2022-07-22T09:06:26;99839.21;;;24.97;72.63
67373;BME280;54257;54.496;18.412;2022-07-22T09:08:59;99834.70;;;25.39;70.86
67373;BME280;54257;54.496;18.412;2022-07-22T09:11:28;99835.15;;;25.78;69.71
67373;BME280;54257;54.496;18.412;2022-07-22T09:14:00;99836.66;;;26.11;67.90
67373;BME280;54257;54.496;18.412;2022-07-22T09:16:45;99841.88;;;26.55;67.21
67373;BME280;54257;54.496;18.412;2022-07-22T09:19:13;99843.17;;;27.07;63.38
67373;BME280;54257;54.496;18.412;2022-07-22T09:21:43;99842.41;;;27.34;60.45
67373;BME280;54257;54.496;18.412;2022-07-22T09:26:54;99837.73;;;27.50;55.10
67373;BME280;54257;54.496;18.412;2022-07-22T09:29:22;99845.64;;;27.68;55.67
67373;BME280;54257;54.496;18.412;2022-07-22T09:31:52;99854.46;;;28.05;57.05
67373;BME280;54257;54.496;18.412;2022-07-22T09:34:27;99855.56;;;28.55;56.91
67373;BME280;54257;54.496;18.412;2022-07-22T09:36:59;99864.35;;;28.94;53.11
67373;BME280;54257;54.496;18.412;2022-07-22T09:39:31;99863.89;;;29.05;50.22
67373;BME280;54257;54.496;18.412;2022-07-22T09:42:00;99865.14;;;29.10;50.97
67373;BME280;54257;54.496;18.412;2022-07-22T09:44:27;99862.63;;;29.39;51.11
67373;BME280;54257;54.496;18.412;2022-07-22T09:46:54;99871.42;;;29.59;48.78
67373;BME280;54257;54.496;18.412;2022-07-22T09:49:36;99868.34;;;29.57;48.54
67373;BME280;54257;54.496;18.412;2022-07-22T09:52:06;99873.42;;;29.49;48.01
67373;BME280;54257;54.496;18.412;2022-07-22T09:54:33;99869.05;;;29.52;48.05
67373;BME280;54257;54.496;18.412;2022-07-22T09:57:00;99873.71;;;29.45;47.45
67373;BME280;54257;54.496;18.412;2022-07-22T09:59:28;99873.90;;;29.45;48.04
67373;BME280;54257;54.496;18.412;2022-07-22T10:01:57;99873.14;;;29.51;48.09
67373;BME280;54257;54.496;18.412;2022-07-22T10:04:27;99869.36;;;29.50;48.77
67373;BME280;54257;54.496;18.412;2022-07-22T10:06:56;99874.02;;;29.57;48.57
67373;BME280;54257;54.496;18.412;2022-07-22T10:09:24;99872.96;;;29.84;49.47
67373;BME280;54257;54.496;18.412;2022-07-22T10:11:51;99879.88;;;30.27;48.52
67373;BME280;54257;54.496;18.412;2022-07-22T10:14:20;99883.11;;;30.42;47.00
67373;BME280;54257;54.496;18.412;2022-07-22T10:16:48;99881.15;;;30.60;46.82
67373;BME280;54257;54.496;18.412;2022-07-22T10:19:16;99883.64;;;30.79;46.62
67373;BME280;54257;54.496;18.412;2022-07-22T10:21:43;99884.98;;;31.03;46.21
67373;BME280;54257;54.496;18.412;2022-07-22T10:24:12;99884.64;;;31.00;45.00
67373;BME280;54257;54.496;18.412;2022-07-22T10:26:47;99881.06;;;30.73;44.69
67373;BME280;54257;54.496;18.412;2022-07-22T10:29:25;99883.08;;;30.50;45.22
67373;BME280;54257;54.496;18.412;2022-07-22T10:32:24;99880.74;;;30.27;45.63
67373;BME280;54257;54.496;18.412;2022-07-22T10:37:37;99877.37;;;30.67;45.54
67373;BME280;54257;54.496;18.412;2022-07-22T10:45:34;99866.99;;;31.33;45.32
67373;BME280;54257;54.496;18.412;2022-07-22T10:48:04;99871.19;;;31.46;44.42
67373;BME280;54257;54.496;18.412;2022-07-22T10:53:09;99872.02;;;31.22;44.66
67373;BME280;54257;54.496;18.412;2022-07-22T10:55:38;99871.94;;;31.00;44.76
67373;BME280;54257;54.496;18.412;2022-07-22T11:01:06;99874.80;;;30.53;46.64
67373;BME280;54257;54.496;18.412;2022-07-22T11:03:35;99869.23;;;30.31;46.82
67373;BME280;54257;54.496;18.412;2022-07-22T11:06:29;99871.22;;;30.03;46.70
67373;BME280;54257;54.496;18.412;2022-07-22T11:09:04;99875.09;;;29.76;46.81
67373;BME280;54257;54.496;18.412;2022-07-22T11:11:34;99883.54;;;29.60;47.50
67373;BME280;54257;54.496;18.412;2022-07-22T11:14:02;99884.38;;;29.49;47.94
67373;BME280;54257;54.496;18.412;2022-07-22T11:16:29;99882.23;;;29.38;48.20
67373;BME280;54257;54.496;18.412;2022-07-22T11:19:01;99880.85;;;29.18;48.13
67373;BME280;54257;54.496;18.412;2022-07-22T11:21:31;99872.21;;;29.10;48.67
67373;BME280;54257;54.496;18.412;2022-07-22T11:24:01;99872.48;;;29.08;49.02
67373;BME280;54257;54.496;18.412;2022-07-22T11:26:35;99877.20;;;29.00;48.89
67373;BME280;54257;54.496;18.412;2022-07-22T11:29:04;99876.27;;;28.98;49.08
67373;BME280;54257;54.496;18.412;2022-07-22T11:31:31;99871.84;;;28.93;48.89
67373;BME280;54257;54.496;18.412;2022-07-22T11:34:13;99867.76;;;28.87;49.06
67373;BME280;54257;54.496;18.412;2022-07-22T11:36:42;99871.27;;;28.84;49.52
67373;BME280;54257;54.496;18.412;2022-07-22T11:39:11;99867.70;;;28.82;49.61
67373;BME280;54257;54.496;18.412;2022-07-22T11:41:41;99867.59;;;28.78;49.48
67373;BME280;54257;54.496;18.412;2022-07-22T11:44:08;99863.23;;;28.78;49.37
67373;BME280;54257;54.496;18.412;2022-07-22T11:46:40;99859.73;;;28.80;48.52
67373;BME280;54257;54.496;18.412;2022-07-22T11:49:16;99855.85;;;29.26;48.88
67373;BME280;54257;54.496;18.412;2022-07-22T11:51:43;99850.03;;;29.87;47.88
67373;BME280;54257;54.496;18.412;2022-07-22T11:54:11;99856.08;;;30.30;46.28
67373;BME280;54257;54.496;18.412;2022-07-22T11:56:38;99850.26;;;30.38;45.26
67373;BME280;54257;54.496;18.412;2022-07-22T11:59:06;99844.84;;;30.34;45.08
67373;BME280;54257;54.496;18.412;2022-07-22T12:01:37;99849.27;;;30.34;45.30
67373;BME280;54257;54.496;18.412;2022-07-22T12:04:05;99850.55;;;30.51;45.36
67373;BME280;54257;54.496;18.412;2022-07-22T12:06:34;99847.85;;;30.86;43.31
67373;BME280;54257;54.496;18.412;2022-07-22T12:11:37;99844.44;;;30.61;42.56
67373;BME280;54257;54.496;18.412;2022-07-22T12:16:41;99848.98;;;29.80;43.46
67373;BME280;54257;54.496;18.412;2022-07-22T12:19:11;99851.36;;;29.48;44.11
67373;BME280;54257;54.496;18.412;2022-07-22T12:32:16;99845.64;;;28.54;45.57
67373;BME280;54257;54.496;18.412;2022-07-22T12:35:03;99844.80;;;28.39;46.35
67373;BME280;54257;54.496;18.412;2022-07-22T12:37:34;99845.44;;;28.34;47.10
67373;BME280;54257;54.496;18.412;2022-07-22T12:40:06;99845.70;;;28.38;47.59
67373;BME280;54257;54.496;18.412;2022-07-22T12:42:37;99850.27;;;28.47;47.99
67373;BME280;54257;54.496;18.412;2022-07-22T12:45:05;99851.95;;;28.40;47.96
67373;BME280;54257;54.496;18.412;2022-07-22T12:47:49;99848.57;;;28.40;48.70
67373;BME280;54257;54.496;18.412;2022-07-22T12:50:30;99851.94;;;28.49;49.27
67373;BME280;54257;54.496;18.412;2022-07-22T12:53:00;99849.21;;;28.56;49.46
67373;BME280;54257;54.496;18.412;2022-07-22T12:55:34;99846.34;;;28.66;50.32
67373;BME280;54257;54.496;18.412;2022-07-22T12:58:04;99854.77;;;28.84;51.37
67373;BME280;54257;54.496;18.412;2022-07-22T13:00:37;99853.21;;;28.86;52.27
67373;BME280;54257;54.496;18.412;2022-07-22T13:03:04;99853.77;;;28.89;52.13
67373;BME280;54257;54.496;18.412;2022-07-22T13:05:31;99853.69;;;29.10;52.19
67373;BME280;54257;54.496;18.412;2022-07-22T13:08:02;99850.61;;;29.23;51.83
67373;BME280;54257;54.496;18.412;2022-07-22T13:10:30;99850.35;;;29.13;51.56
67373;BME280;54257;54.496;18.412;2022-07-22T13:12:57;99853.02;;;29.07;51.92
67373;BME280;54257;54.496;18.412;2022-07-22T13:15:27;99849.48;;;29.27;52.37
67373;BME280;54257;54.496;18.412;2022-07-22T13:17:55;99844.02;;;29.41;52.43
67373;BME280;54257;54.496;18.412;2022-07-22T13:20:22;99844.23;;;29.52;52.18
67373;BME280;54257;54.496;18.412;2022-07-22T13:22:49;99845.83;;;29.79;51.62
67373;BME280;54257;54.496;18.412;2022-07-22T13:25:16;99838.44;;;29.93;51.05
67373;BME280;54257;54.496;18.412;2022-07-22T13:27:42;99838.98;;;29.89;50.17
67373;BME280;54257;54.496;18.412;2022-07-22T13:30:10;99837.55;;;29.52;50.26